Time;durP1;ratioP1;P1;durP2;ratioP2;P2;SDS_P1;SDS_P2;PMS_P1;PMS_P2;Temp;Humidity;BMP_temperature;BMP_pressure;BME280_temperature;BME280_humidity;BME280_pressure;Samples;Min_cycle;Max_cycle;Signal;HPM_P1;HPM_P2
2022/04/22 00:01:00;;;;;;;;;24.50;23.75;;;;;6.64;100.00;100758.03;3730962;37;21199;-78
2022/04/22 00:03:28;;;;;;;;;27.50;27.00;;;;;6.54;100.00;100749.19;3731083;38;21137;-79
2022/04/22 00:05:55;;;;;;;;;26.75;26.75;;;;;6.63;100.00;100753.66;3730125;38;21309;-78
2022/04/22 00:08:22;;;;;;;;;28.75;28.75;;;;;6.64;100.00;100752.66;3730126;37;21183;-78
2022/04/22 00:13:34;;;;;;;;;34.50;31.00;;;;;6.72;100.00;100766.19;3730502;37;21102;-77
2022/04/22 00:16:02;;;;;;;;;29.75;28.00;;;;;6.46;100.00;100733.81;3730634;37;21105;-78
2022/04/22 00:18:37;;;;;;;;;32.50;31.50;;;;;6.58;100.00;100747.88;3730449;38;21093;-78
2022/04/22 00:21:06;;;;;;;;;31.50;31.25;;;;;6.17;100.00;100690.19;3730068;37;21233;-80
2022/04/22 00:23:34;;;;;;;;;28.25;26.50;;;;;6.36;100.00;100716.06;3730167;37;21105;-80
2022/04/22 00:26:01;;;;;;;;;33.00;28.75;;;;;6.54;100.00;100750.03;3730352;37;21072;-80
2022/04/22 00:28:29;;;;;;;;;30.00;29.00;;;;;6.73;100.00;100767.88;3730267;37;21148;-78
2022/04/22 00:30:57;;;;;;;;;31.50;29.25;;;;;6.85;100.00;100772.00;3729559;37;21399;-78
2022/04/22 00:33:45;;;;;;;;;26.00;24.50;;;;;6.88;100.00;100763.63;3729887;37;21154;-79
2022/04/22 00:39:35;;;;;;;;;29.50;28.25;;;;;6.66;100.00;100768.66;3730234;37;20739;-79
2022/04/22 00:42:10;;;;;;;;;28.50;27.75;;;;;6.71;100.00;100775.25;3730460;38;20630;-79
2022/04/22 00:44:37;;;;;;;;;27.50;27.50;;;;;6.82;100.00;100766.09;3730702;38;20526;-79
2022/04/22 00:47:05;;;;;;;;;33.00;31.00;;;;;6.71;100.00;100752.91;3730256;38;20560;-79
2022/04/22 00:49:33;;;;;;;;;31.00;28.50;;;;;6.48;100.00;100717.53;3730306;38;20775;-82
2022/04/22 00:52:03;;;;;;;;;29.25;27.75;;;;;6.54;100.00;100757.25;3730811;37;20778;-79
2022/04/22 00:54:32;;;;;;;;;27.50;26.50;;;;;6.30;100.00;100745.25;3730593;38;20527;-79
2022/04/22 00:57:00;;;;;;;;;27.50;26.50;;;;;6.45;100.00;100769.78;3731398;37;20730;-79
2022/04/22 00:59:32;;;;;;;;;34.25;28.00;;;;;6.42;100.00;100763.84;3730741;37;20475;-80
2022/04/22 01:01:59;;;;;;;;;33.00;31.00;;;;;6.32;100.00;100753.16;3730507;37;20587;-80
2022/04/22 01:09:57;;;;;;;;;31.50;30.75;;;;;6.05;100.00;100756.72;3730637;38;20735;-78
2022/04/22 01:12:43;;;;;;;;;30.50;29.50;;;;;6.05;100.00;100780.06;3730464;37;20507;-78
2022/04/22 01:15:34;;;;;;;;;29.75;29.00;;;;;6.01;100.00;100776.84;3731402;37;20528;-79
2022/04/22 01:18:01;;;;;;;;;34.75;32.00;;;;;5.78;100.00;100752.16;3731190;38;20491;-80
2022/04/22 01:20:28;;;;;;;;;31.00;30.00;;;;;5.62;100.00;100742.06;3731121;37;20480;-78
2022/04/22 01:22:55;;;;;;;;;28.50;28.50;;;;;5.78;100.00;100775.47;3731013;38;20467;-79
2022/04/22 01:28:10;;;;;;;;;32.75;31.75;;;;;5.82;100.00;100774.19;3731796;37;20460;-79
2022/04/22 01:30:36;;;;;;;;;32.25;31.25;;;;;5.67;100.00;100756.91;3730559;37;20462;-80
2022/04/22 01:33:04;;;;;;;;;29.75;29.25;;;;;5.77;100.00;100781.84;3731066;38;20669;-79
2022/04/22 01:35:31;;;;;;;;;32.50;31.25;;;;;5.78;100.00;100776.31;3730612;37;20510;-79
2022/04/22 01:37:58;;;;;;;;;31.25;27.50;;;;;5.19;100.00;100678.25;3730768;38;20617;-78
2022/04/22 01:40:25;;;;;;;;;28.25;28.25;;;;;5.82;100.00;100787.62;3730297;37;21073;-78
2022/04/22 01:42:53;;;;;;;;;28.75;28.00;;;;;5.79;100.00;100777.16;3730057;37;21095;-79
2022/04/22 01:45:21;;;;;;;;;33.25;31.00;;;;;5.31;100.00;100717.31;3730391;37;21075;-80
2022/04/22 01:47:57;;;;;;;;;30.50;29.50;;;;;5.18;100.00;100710.59;3729892;37;21079;-79
2022/04/22 01:50:25;;;;;;;;;31.75;29.75;;;;;5.20;100.00;100732.75;3730207;37;21135;-77
2022/04/22 01:52:52;;;;;;;;;31.75;29.75;;;;;5.46;100.00;100771.38;3729563;37;21055;-78
2022/04/22 01:55:20;;;;;;;;;31.00;29.75;;;;;5.48;100.00;100766.69;3730044;37;21092;-77
2022/04/22 01:57:47;;;;;;;;;34.75;33.25;;;;;5.45;100.00;100755.41;3730227;38;21148;-78
2022/04/22 02:00:16;;;;;;;;;31.00;29.50;;;;;5.42;100.00;100761.91;3730451;37;21072;-78
2022/04/22 02:02:43;;;;;;;;;31.00;29.50;;;;;5.27;100.00;100761.50;3730864;37;21095;-79
2022/04/22 02:05:11;;;;;;;;;29.00;28.25;;;;;5.25;100.00;100763.50;3730166;37;21084;-80
2022/04/22 02:07:41;;;;;;;;;32.75;31.50;;;;;5.35;100.00;100768.00;3730759;38;21024;-76
2022/04/22 02:10:10;;;;;;;;;33.00;31.25;;;;;5.36;100.00;100767.00;3730495;37;21060;-79
2022/04/22 02:12:37;;;;;;;;;32.25;29.75;;;;;5.14;100.00;100739.53;3729188;37;21035;-78
2022/04/22 02:15:05;;;;;;;;;31.00;30.75;;;;;5.23;100.00;100764.62;3729726;38;21135;-80
2022/04/22 02:17:33;;;;;;;;;36.75;32.75;;;;;5.22;100.00;100762.94;3729517;37;20994;-76
2022/04/22 02:20:02;;;;;;;;;31.75;30.75;;;;;5.19;100.00;100769.47;3729763;37;21178;-79
2022/04/22 02:22:29;;;;;;;;;29.75;29.50;;;;;4.99;100.00;100740.97;3730053;37;21013;-79
2022/04/22 02:24:59;;;;;;;;;33.25;31.25;;;;;5.06;100.00;100770.75;3730503;38;21261;-77
2022/04/22 02:30:12;;;;;;;;;32.75;32.75;;;;;4.65;100.00;100743.25;3729377;38;21048;-76
2022/04/22 02:32:42;;;;;;;;;29.75;28.25;;;;;4.75;100.00;100760.16;3729161;37;21081;-77
2022/04/22 02:35:10;;;;;;;;;34.00;33.00;;;;;4.68;100.00;100752.88;3729216;37;21069;-77
2022/04/22 02:37:37;;;;;;;;;33.25;32.50;;;;;3.97;100.00;100640.56;3728763;38;21234;-76
2022/04/22 02:40:05;;;;;;;;;43.25;36.50;;;;;4.41;100.00;100729.41;3729001;38;20372;-75
2022/04/22 02:45:30;;;;;;;;;35.75;33.00;;;;;4.54;100.00;100764.84;3730181;37;20337;-79
2022/04/22 02:48:05;;;;;;;;;32.75;32.75;;;;;4.71;100.00;100760.59;3730237;38;20414;-78
2022/04/22 02:50:32;;;;;;;;;35.50;31.75;;;;;4.68;100.00;100753.69;3730104;38;20592;-77
2022/04/22 02:52:59;;;;;;;;;39.50;35.25;;;;;4.40;100.00;100708.97;3730024;37;20414;-77
2022/04/22 02:55:27;;;;;;;;;38.75;34.75;;;;;4.42;100.00;100723.06;3730086;38;20541;-78
2022/04/22 02:57:59;;;;;;;;;33.50;33.00;;;;;4.59;100.00;100758.06;3730319;37;20347;-77
2022/04/22 03:00:27;;;;;;;;;36.50;34.25;;;;;4.55;100.00;100762.03;3729270;37;20573;-76
2022/04/22 03:02:54;;;;;;;;;37.75;32.75;;;;;4.44;100.00;100755.94;3728917;38;20311;-75
2022/04/22 03:05:21;;;;;;;;;41.75;35.00;;;;;4.26;100.00;100735.19;3728081;37;20324;-75
2022/04/22 03:07:49;;;;;;;;;31.75;30.25;;;;;4.11;100.00;100736.59;3728142;38;20397;-75
2022/04/22 03:10:18;;;;;;;;;38.25;34.75;;;;;4.03;100.00;100731.06;3728112;38;20339;-76
2022/04/22 03:12:46;;;;;;;;;42.50;35.50;;;;;4.14;100.00;100768.47;3729022;38;20403;-76
2022/04/22 03:15:16;;;;;;;;;40.50;34.00;;;;;4.07;100.00;100748.56;3728571;37;20480;-75
2022/04/22 03:17:43;;;;;;;;;50.00;40.00;;;;;4.12;100.00;100773.09;3729222;37;20303;-76
2022/04/22 03:20:11;;;;;;;;;48.00;39.50;;;;;4.09;100.00;100772.53;3729544;37;20324;-77
2022/04/22 03:22:38;;;;;;;;;51.25;41.75;;;;;3.92;100.00;100749.91;3730795;38;20496;-78
2022/04/22 03:25:07;;;;;;;;;48.50;40.25;;;;;3.97;100.00;100777.13;3729483;37;20406;-76
2022/04/22 03:27:34;;;;;;;;;54.75;46.00;;;;;3.48;100.00;100724.41;3729056;38;20350;-78
2022/04/22 03:30:02;;;;;;;;;54.00;43.75;;;;;3.78;100.00;100761.84;3730161;37;20407;-78
2022/04/22 03:32:30;;;;;;;;;57.50;46.00;;;;;3.91;100.00;100786.56;3729794;38;20330;-78
2022/04/22 03:34:58;;;;;;;;;58.50;47.25;;;;;4.03;100.00;100778.44;3729405;38;20344;-76
2022/04/22 03:37:28;;;;;;;;;61.75;48.50;;;;;3.95;100.00;100752.31;3729043;38;20294;-77
2022/04/22 03:39:55;;;;;;;;;58.00;48.25;;;;;4.18;100.00;100783.25;3728499;37;20946;-77
2022/04/22 03:42:23;;;;;;;;;51.50;43.25;;;;;4.28;100.00;100764.50;3728273;37;20956;-77
2022/04/22 03:44:50;;;;;;;;;49.50;40.25;;;;;4.28;100.00;100764.50;3728530;37;21058;-75
2022/04/22 03:47:19;;;;;;;;;50.25;39.50;;;;;4.22;100.00;100757.03;3728371;37;20898;-75
2022/04/22 03:49:47;;;;;;;;;51.25;43.50;;;;;4.13;100.00;100765.91;3728333;38;20973;-76
2022/04/22 03:52:14;;;;;;;;;45.75;39.75;;;;;4.03;100.00;100744.47;3728374;38;20959;-81
2022/04/22 03:54:41;;;;;;;;;48.75;39.25;;;;;4.21;100.00;100774.09;3729896;37;20974;-80
2022/04/22 04:00:05;;;;;;;;;54.25;45.00;;;;;4.32;100.00;100798.94;3728142;38;21014;-79
2022/04/22 04:02:34;;;;;;;;;57.25;48.00;;;;;4.41;100.00;100770.47;3729035;37;21124;-79
2022/04/22 04:05:02;;;;;;;;;57.00;47.25;;;;;4.40;100.00;100765.25;3728652;38;20887;-80
2022/04/22 04:07:29;;;;;;;;;60.00;49.00;;;;;4.28;100.00;100740.41;3729394;37;20918;-78
2022/04/22 04:18:13;;;;;;;;;80.50;62.50;;;;;5.02;100.00;100786.28;3728285;37;18113;-80
2022/04/22 04:23:26;;;;;;;;;68.00;54.50;;;;;5.20;100.00;100778.38;3728987;37;20856;-81
2022/04/22 04:25:53;;;;;;;;;77.00;58.75;;;;;5.05;100.00;100744.91;3728879;38;20909;-80
2022/04/22 04:28:23;;;;;;;;;69.75;56.50;;;;;5.44;100.00;100789.44;3729495;37;20856;-80
2022/04/22 04:30:50;;;;;;;;;75.00;65.50;;;;;5.49;100.00;100780.97;3728548;37;18094;-79
2022/04/22 04:33:37;;;;;;;;;72.75;63.75;;;;;5.58;100.00;100780.94;3729941;37;18156;-81
2022/04/22 04:36:06;;;;;;;;;72.75;59.00;;;;;5.84;100.00;100797.22;3730307;38;18095;-80
2022/04/22 04:38:34;;;;;;;;;68.75;55.75;;;;;6.05;100.00;100802.41;3729869;37;18386;-80
2022/04/22 04:41:02;;;;;;;;;66.00;52.25;;;;;6.21;100.00;100804.47;3728899;37;18099;-81
2022/04/22 04:43:29;;;;;;;;;66.50;53.75;;;;;6.37;100.00;100799.25;3731084;37;18081;-81
2022/04/22 04:45:57;;;;;;;;;69.50;56.00;;;;;6.49;100.00;100791.81;3731272;37;18122;-81
2022/04/22 04:48:25;;;;;;;;;70.25;56.50;;;;;6.63;100.00;100804.75;3731436;37;18095;-80
2022/04/22 04:50:54;;;;;;;;;69.00;55.00;;;;;6.72;100.00;100789.53;3730523;37;20902;-80
2022/04/22 04:53:23;;;;;;;;;69.75;57.25;;;;;6.87;100.00;100802.28;3729324;37;21069;-80
2022/04/22 04:55:52;;;;;;;;;60.75;49.50;;;;;7.04;100.00;100791.69;3729763;38;21044;-79
2022/04/22 04:58:20;;;;;;;;;54.25;43.75;;;;;7.28;100.00;100795.38;3730458;37;20831;-80
2022/04/22 05:00:54;;;;;;;;;52.50;44.00;;;;;7.30;100.00;100765.63;3731351;38;20815;-82
2022/04/22 05:03:21;;;;;;;;;45.75;37.75;;;;;7.72;100.00;100792.69;3732081;38;20843;-80
2022/04/22 05:05:48;;;;;;;;;48.00;40.50;;;;;7.97;100.00;100794.47;3730775;38;20864;-78
2022/04/22 05:08:16;;;;;;;;;39.50;35.00;;;;;8.17;100.00;100796.94;3730019;37;20852;-81
2022/04/22 05:10:43;;;;;;;;;42.25;37.00;;;;;8.37;100.00;100792.97;3729578;38;20850;-84
2022/04/22 05:13:11;;;;;;;;;36.75;34.25;;;;;8.57;100.00;100790.84;3730436;37;20855;-83
2022/04/22 05:15:39;;;;;;;;;38.00;34.75;;;;;8.70;100.00;100784.97;3728500;37;20705;-81
2022/04/22 05:18:06;;;;;;;;;22.50;21.75;;;;;8.84;100.00;100795.94;3729452;37;20762;-85
2022/04/22 05:20:33;;;;;;;;;38.00;33.50;;;;;9.01;100.00;100795.94;3729930;38;20827;-84
2022/04/22 05:23:01;;;;;;;;;40.00;35.75;;;;;9.07;100.00;100774.53;3729303;37;20841;-85
2022/04/22 05:25:29;;;;;;;;;36.00;34.25;;;;;9.35;100.00;100783.13;3729611;38;21066;-81
2022/04/22 05:27:56;;;;;;;;;35.75;34.00;;;;;9.46;100.00;100779.22;3727511;37;20893;-85
2022/04/22 05:33:10;;;;;;;;;33.50;30.00;;;;;9.61;100.00;100780.22;3726615;38;20911;-76
2022/04/22 05:35:37;;;;;;;;;38.00;34.50;;;;;9.70;100.00;100794.56;3725734;38;20785;-79
2022/04/22 05:38:06;;;;;;;;;41.00;34.75;;;;;9.87;100.00;100798.91;3726820;37;20817;-81
2022/04/22 05:40:36;;;;;;;;;37.25;33.00;;;;;9.96;100.00;100798.69;3726913;37;20123;-79
2022/04/22 05:43:07;;;;;;;;;38.25;34.75;;;;;9.98;100.00;100782.28;3726846;37;20122;-78
2022/04/22 05:45:38;;;;;;;;;36.50;32.75;;;;;10.27;100.00;100804.19;3726884;37;20105;-78
2022/04/22 05:48:06;;;;;;;;;39.50;35.25;;;;;10.42;100.00;100798.84;3726034;37;20324;-77
2022/04/22 05:50:34;;;;;;;;;36.75;33.00;;;;;10.61;100.00;100803.84;3726287;37;20170;-78
2022/04/22 05:53:02;;;;;;;;;41.25;35.75;;;;;10.81;100.00;100808.81;3726507;38;20103;-77
2022/04/22 05:55:29;;;;;;;;;37.25;33.50;;;;;10.77;100.00;100802.06;3728478;37;20103;-80
2022/04/22 05:58:00;;;;;;;;;39.50;33.75;;;;;10.88;100.00;100820.59;3727339;38;20069;-80
2022/04/22 06:00:32;;;;;;;;;42.75;37.25;;;;;10.89;100.00;100787.09;3726340;37;20082;-73
2022/04/22 06:03:26;;;;;;;;;38.75;33.25;;;;;11.24;100.00;100821.69;3726405;38;20072;-77
2022/04/22 06:05:57;;;;;;;;;41.25;36.50;;;;;11.50;100.00;100817.72;3725341;37;20227;-78
2022/04/22 06:11:28;;;;;;;;;47.25;40.00;;;;;11.65;100.00;100813.16;3725815;38;20086;-78
2022/04/22 06:13:55;;;;;;;;;47.50;40.25;;;;;11.72;100.00;100783.44;3727391;38;20276;-79
2022/04/22 06:16:23;;;;;;;;;48.75;38.50;;;;;11.97;100.00;100803.03;3727527;37;20058;-82
2022/04/22 06:18:50;;;;;;;;;54.75;45.00;;;;;12.04;100.00;100821.09;3728112;37;20046;-82
2022/04/22 06:21:18;;;;;;;;;45.25;39.25;;;;;11.92;100.00;100768.34;3730248;37;20074;-81
2022/04/22 06:23:45;;;;;;;;;34.75;30.50;;;;;12.15;100.00;100782.63;3731158;37;20052;-83
2022/04/22 06:26:13;;;;;;;;;43.75;36.75;;;;;12.31;99.43;100772.59;3729083;38;20059;-82
2022/04/22 06:28:41;;;;;;;;;44.75;38.00;;;;;12.41;98.01;100794.88;3729871;38;20285;-80
2022/04/22 06:31:10;;;;;;;;;48.00;40.00;;;;;12.75;97.43;100788.78;3728895;37;20062;-88
2022/04/22 06:33:38;;;;;;;;;44.25;36.75;;;;;12.85;94.17;100786.59;3727922;37;20035;-82
2022/04/22 06:36:13;;;;;;;;;39.75;35.75;;;;;12.93;90.47;100781.03;3727494;38;20189;-79
2022/04/22 06:38:45;;;;;;;;;36.00;32.75;;;;;13.00;88.56;100765.63;3727237;38;20669;-79
2022/04/22 06:47:13;;;;;;;;;42.75;36.00;;;;;13.66;80.83;100773.50;3728405;37;20560;-76
2022/04/22 06:49:41;;;;;;;;;40.75;34.75;;;;;13.79;80.14;100770.88;3727459;38;20663;-75
2022/04/22 06:52:10;;;;;;;;;41.00;36.25;;;;;13.69;79.29;100745.91;3728029;37;20583;-76
2022/04/22 06:54:38;;;;;;;;;41.75;35.75;;;;;13.79;80.96;100762.72;3727329;38;20981;-76
2022/04/22 06:57:06;;;;;;;;;33.75;30.00;;;;;13.79;80.01;100765.44;3725970;38;20738;-83
2022/04/22 06:59:35;;;;;;;;;41.75;35.75;;;;;13.57;80.67;100730.16;3726045;37;20643;-75
2022/04/22 07:02:03;;;;;;;;;46.50;39.50;;;;;13.87;82.06;100757.12;3726898;37;20838;-78
2022/04/22 07:04:32;;;;;;;;;38.00;34.50;;;;;13.99;81.37;100760.13;3725726;38;20603;-76
2022/04/22 07:07:00;;;;;;;;;38.00;33.50;;;;;13.99;79.27;100755.53;3725968;38;20629;-74
2022/04/22 07:09:27;;;;;;;;;23.75;23.75;;;;;14.09;79.22;100749.69;3726633;37;20903;-74
2022/04/22 07:11:57;;;;;;;;;38.00;34.00;;;;;14.19;78.84;100742.84;3726498;38;20640;-79
2022/04/22 07:14:25;;;;;;;;;37.50;33.75;;;;;14.21;75.45;100724.41;3726708;37;20698;-75
2022/04/22 07:16:53;;;;;;;;;41.00;33.25;;;;;14.44;76.09;100748.63;3726129;38;20727;-76
2022/04/22 07:19:21;;;;;;;;;38.75;34.00;;;;;14.51;75.53;100757.66;3727050;38;20796;-78
2022/04/22 07:21:49;;;;;;;;;34.25;32.25;;;;;14.56;74.67;100746.13;3725768;37;20528;-75
2022/04/22 07:24:17;;;;;;;;;29.00;28.25;;;;;14.80;72.90;100759.19;3725057;38;20514;-75
2022/04/22 07:26:45;;;;;;;;;37.50;33.25;;;;;14.96;70.70;100760.69;3725460;37;20690;-75
2022/04/22 07:29:14;;;;;;;;;40.00;33.25;;;;;15.21;69.08;100759.03;3724863;37;20519;-74
2022/04/22 07:31:42;;;;;;;;;31.75;30.00;;;;;15.16;61.94;100747.91;3724660;37;20562;-75
2022/04/22 07:34:10;;;;;;;;;33.50;31.50;;;;;15.03;62.01;100747.06;3723958;37;20526;-73
2022/04/22 07:36:38;;;;;;;;;32.75;31.25;;;;;14.99;60.77;100740.34;3724360;37;20582;-76
2022/04/22 07:39:06;;;;;;;;;34.75;32.00;;;;;15.20;64.19;100740.12;3725167;38;19986;-74
2022/04/22 07:41:38;;;;;;;;;35.50;32.75;;;;;15.30;62.21;100742.47;3725272;37;20010;-74
2022/04/22 07:46:59;;;;;;;;;34.75;32.50;;;;;15.43;57.09;100754.19;3725452;37;19924;-76
2022/04/22 07:49:28;;;;;;;;;31.75;31.00;;;;;15.56;57.82;100753.38;3725817;38;19983;-78
2022/04/22 07:51:55;;;;;;;;;31.50;31.00;;;;;15.49;57.71;100726.09;3728440;38;20137;-76
2022/04/22 07:54:23;;;;;;;;;29.75;29.75;;;;;15.59;57.75;100744.78;3727150;38;20007;-74
2022/04/22 07:56:50;;;;;;;;;33.50;32.00;;;;;15.67;56.05;100746.44;3727445;38;19969;-78
2022/04/22 07:59:18;;;;;;;;;32.50;31.25;;;;;15.68;56.23;100754.41;3727474;37;19888;-75
2022/04/22 08:01:46;;;;;;;;;34.50;32.25;;;;;15.73;53.61;100743.69;3727957;38;19880;-78
2022/04/22 08:04:13;;;;;;;;;22.50;20.50;;;;;15.72;50.65;100736.56;3728893;37;19895;-75
2022/04/22 08:06:41;;;;;;;;;26.75;26.75;;;;;15.99;50.46;100736.50;3729426;38;19859;-81
2022/04/22 08:09:09;;;;;;;;;29.50;29.50;;;;;15.84;48.97;100713.03;3729938;38;19885;-81
2022/04/22 08:11:36;;;;;;;;;24.75;24.25;;;;;16.08;48.19;100725.13;3729427;37;19854;-79
2022/04/22 08:14:05;;;;;;;;;30.00;30.00;;;;;16.29;47.75;100737.63;3728801;37;19896;-78
2022/04/22 08:16:32;;;;;;;;;30.50;29.50;;;;;16.46;46.64;100733.34;3728824;38;19876;-77
2022/04/22 08:19:00;;;;;;;;;30.00;29.75;;;;;16.58;46.39;100721.75;3729462;38;19852;-81
2022/04/22 08:21:33;;;;;;;;;36.50;32.75;;;;;16.60;44.89;100727.81;3729419;38;19849;-80
2022/04/22 08:24:04;;;;;;;;;25.00;23.50;;;;;16.34;43.73;100701.47;3728788;38;20080;-81
2022/04/22 08:26:32;;;;;;;;;23.75;23.75;;;;;16.47;44.14;100702.25;3729234;38;19948;-82
2022/04/22 08:28:59;;;;;;;;;24.50;21.75;;;;;16.75;42.64;100712.81;3730245;37;20137;-77
2022/04/22 08:31:27;;;;;;;;;23.50;23.50;;;;;16.93;42.05;100712.06;3729966;38;19865;-77
2022/04/22 08:33:57;;;;;;;;;23.00;23.00;;;;;17.06;40.82;100711.13;3728750;38;19813;-80
2022/04/22 08:36:28;;;;;;;;;22.00;22.00;;;;;16.87;39.68;100689.19;3728936;37;19935;-80
2022/04/22 08:38:57;;;;;;;;;23.00;23.00;;;;;17.06;40.12;100711.13;3728481;37;20421;-81
2022/04/22 08:41:26;;;;;;;;;25.75;25.00;;;;;17.27;39.81;100718.09;3729900;38;20437;-78
2022/04/22 08:43:56;;;;;;;;;24.25;24.25;;;;;17.39;39.31;100714.41;3728176;37;20493;-78
2022/04/22 08:51:56;;;;;;;;;24.75;24.00;;;;;17.36;38.33;100703.91;3728314;37;20415;-81
2022/04/22 08:54:26;;;;;;;;;28.75;28.75;;;;;17.50;38.53;100701.87;3730169;37;20413;-84
2022/04/22 08:56:57;;;;;;;;;23.50;23.50;;;;;17.31;38.01;100643.56;3730542;38;20411;-77
2022/04/22 08:59:25;;;;;;;;;23.50;23.00;;;;;17.71;38.00;100696.00;3726680;37;20675;-79
2022/04/22 09:01:55;;;;;;;;;28.00;27.00;;;;;17.52;37.94;100645.88;3730219;37;20386;-82
2022/04/22 09:04:23;;;;;;;;;21.75;21.50;;;;;17.37;37.05;100666.44;3728764;37;20466;-77
2022/04/22 09:06:52;;;;;;;;;23.25;23.25;;;;;17.88;37.27;100701.72;3728143;38;20386;-78
2022/04/22 09:09:20;;;;;;;;;18.25;17.25;;;;;17.97;35.42;100675.69;3728905;38;20772;-78
2022/04/22 09:11:47;;;;;;;;;21.25;21.25;;;;;18.12;35.25;100702.69;3729786;37;20473;-78
2022/04/22 09:14:19;;;;;;;;;18.00;16.75;;;;;18.15;34.19;100699.50;3729855;37;20654;-79
2022/04/22 09:16:48;;;;;;;;;17.50;17.50;;;;;18.05;33.92;100660.84;3730419;37;20359;-77
2022/04/22 09:19:18;;;;;;;;;20.25;20.25;;;;;18.34;34.32;100694.81;3729939;37;20355;-79
2022/04/22 09:21:57;;;;;;;;;19.25;19.25;;;;;18.35;33.66;100672.66;3729386;38;20461;-79
2022/04/22 09:24:25;;;;;;;;;36.75;32.50;;;;;18.44;33.50;100679.50;3729154;38;20495;-77
2022/04/22 09:27:08;;;;;;;;;20.50;20.50;;;;;18.63;33.68;100695.91;3727334;38;20461;-76
2022/04/22 09:29:55;;;;;;;;;19.75;18.00;;;;;18.50;33.00;100689.53;3728987;38;20634;-79
2022/04/22 09:32:32;;;;;;;;;22.00;20.00;;;;;18.58;33.68;100690.25;3728777;38;20590;-76
2022/04/22 09:35:15;;;;;;;;;21.75;21.75;;;;;18.83;33.26;100685.47;3725806;37;20457;-77
2022/04/22 09:43:56;;;;;;;;;22.75;21.50;;;;;19.05;31.37;100683.84;3726532;38;20015;-77
2022/04/22 09:46:32;;;;;;;;;16.50;16.50;;;;;18.59;31.93;100662.62;3726958;38;19753;-79
2022/04/22 09:49:00;;;;;;;;;15.75;15.75;;;;;18.36;31.61;100594.88;3727356;37;19762;-77
2022/04/22 09:51:30;;;;;;;;;20.75;19.25;;;;;19.08;31.58;100680.63;3727269;37;19745;-79
2022/04/22 09:54:09;;;;;;;;;20.25;19.75;;;;;19.08;31.56;100668.81;3727472;37;19736;-81
2022/04/22 09:56:41;;;;;;;;;19.25;17.00;;;;;18.79;30.93;100685.09;3726897;38;19739;-80
2022/04/22 09:59:23;;;;;;;;;19.50;19.00;;;;;18.57;31.70;100692.16;3727229;38;19731;-80
2022/04/22 10:01:51;;;;;;;;;19.25;19.25;;;;;18.66;31.64;100638.72;3726863;37;19799;-79
2022/04/22 10:04:20;;;;;;;;;16.75;16.00;;;;;19.07;31.28;100678.97;3727165;37;19740;-79
2022/04/22 10:06:48;;;;;;;;;16.00;16.00;;;;;19.01;31.30;100681.81;3728163;38;19953;-79
2022/04/22 10:09:17;;;;;;;;;19.50;18.50;;;;;19.17;31.23;100665.50;3728596;38;19714;-76
2022/04/22 10:11:47;;;;;;;;;18.00;18.00;;;;;18.94;31.84;100643.53;3728750;38;19934;-83
2022/04/22 10:14:19;;;;;;;;;20.25;19.00;;;;;19.22;31.63;100629.12;3727731;37;19740;-84
2022/04/22 10:16:50;;;;;;;;;17.25;17.25;;;;;19.28;32.06;100672.03;3727616;37;19784;-79
2022/04/22 10:19:18;;;;;;;;;22.50;21.75;;;;;19.27;31.40;100664.88;3727536;37;19961;-78
2022/04/22 10:21:49;;;;;;;;;17.75;17.50;;;;;18.98;31.90;100633.75;3727451;37;19696;-77
2022/04/22 10:24:20;;;;;;;;;18.00;17.50;;;;;18.73;31.81;100619.41;3727871;38;19710;-80
2022/04/22 10:26:49;;;;;;;;;25.50;24.00;;;;;19.37;31.81;100676.09;3728774;37;19916;-79
2022/04/22 10:29:19;;;;;;;;;25.75;23.75;;;;;19.66;31.33;100671.59;3728303;37;19707;-79
2022/04/22 10:31:47;;;;;;;;;20.75;20.75;;;;;19.64;30.71;100670.16;3727625;38;19903;-81
2022/04/22 10:34:15;;;;;;;;;16.75;16.50;;;;;19.47;30.87;100670.03;3727760;38;19969;-82
2022/04/22 10:36:43;;;;;;;;;18.00;16.75;;;;;19.25;31.25;100678.00;3729032;38;19840;-82
2022/04/22 10:39:10;;;;;;;;;18.75;18.75;;;;;19.29;31.36;100664.66;3726798;38;20373;-79
2022/04/22 10:41:47;;;;;;;;;17.75;17.75;;;;;19.28;31.27;100650.09;3727511;37;19783;-81
2022/04/22 10:47:16;;;;;;;;;23.00;21.75;;;;;19.40;31.92;100661.91;3727870;38;19668;-81
2022/04/22 10:49:46;;;;;;;;;12.00;12.00;;;;;19.47;31.46;100659.03;3727756;37;20216;-79
2022/04/22 10:52:21;;;;;;;;;19.25;19.25;;;;;19.09;31.93;100640.31;3728189;37;20171;-78
2022/04/22 10:55:15;;;;;;;;;20.75;20.00;;;;;19.01;32.11;100652.47;3727813;38;19649;-79
2022/04/22 10:57:44;;;;;;;;;19.75;18.75;;;;;18.64;31.91;100607.97;3728565;37;19667;-78
2022/04/22 11:00:29;;;;;;;;;17.75;17.25;;;;;19.06;32.14;100660.84;3728489;38;19663;-80
2022/04/22 11:03:08;;;;;;;;;16.50;16.50;;;;;18.73;31.54;100613.91;3727445;37;19638;-79
2022/04/22 11:05:38;;;;;;;;;16.50;16.50;;;;;19.11;31.77;100640.91;3726996;37;19745;-78
2022/04/22 11:08:07;;;;;;;;;19.75;19.00;;;;;19.23;31.13;100633.53;3727085;38;19642;-77
2022/04/22 11:11:11;;;;;;;;;21.00;20.25;;;;;19.29;31.46;100653.66;3725771;37;19660;-78
2022/04/22 11:13:43;;;;;;;;;19.50;19.50;;;;;19.15;31.53;100645.69;3727225;38;19944;-79
2022/04/22 11:16:36;;;;;;;;;18.25;18.25;;;;;17.84;31.91;100452.19;3725920;37;19739;-79
2022/04/22 11:19:37;;;;;;;;;18.00;17.25;;;;;19.31;31.95;100652.34;3727693;38;19619;-81
2022/04/22 11:22:07;;;;;;;;;19.75;19.75;;;;;19.49;32.39;100646.75;3727416;38;19629;-79
2022/04/22 11:24:35;;;;;;;;;21.25;21.25;;;;;19.34;32.10;100640.06;3727851;37;20631;-83
2022/04/22 11:27:11;;;;;;;;;22.75;22.00;;;;;19.13;33.46;100644.25;3727119;37;20871;-77
2022/04/22 11:29:45;;;;;;;;;17.50;17.50;;;;;18.93;33.60;100636.38;3729801;38;20743;-81
2022/04/22 11:32:27;;;;;;;;;17.75;17.75;;;;;19.06;33.77;100640.78;3731042;38;20612;-82
2022/04/22 11:35:18;;;;;;;;;21.00;20.00;;;;;19.15;34.35;100633.87;3729307;37;20607;-80
2022/04/22 11:38:00;;;;;;;;;21.25;21.25;;;;;19.11;34.77;100627.19;3729449;37;20618;-78
2022/04/22 11:40:28;;;;;;;;;25.00;24.25;;;;;19.05;35.38;100620.75;3728795;37;21237;-79
2022/04/22 11:42:59;;;;;;;;;24.25;22.50;;;;;19.04;35.31;100615.50;3729666;37;21452;-78
2022/04/22 11:45:26;;;;;;;;;26.50;23.50;;;;;18.54;36.21;100522.69;3728390;38;21186;-75
2022/04/22 11:47:55;;;;;;;;;19.75;19.75;;;;;18.56;36.55;100550.72;3726522;38;21188;-77
2022/04/22 11:50:24;;;;;;;;;24.00;24.00;;;;;18.73;37.50;100584.59;3729147;38;21205;-80
2022/04/22 11:52:56;;;;;;;;;20.75;20.75;;;;;18.12;37.86;100458.91;3730089;38;21149;-77
2022/04/22 11:55:24;;;;;;;;;26.75;26.00;;;;;19.00;37.98;100586.88;3730045;38;21300;-81
2022/04/22 11:57:52;;;;;;;;;22.50;22.50;;;;;19.01;38.13;100588.56;3729302;37;21267;-82
2022/04/22 12:05:52;;;;;;;;;24.50;23.50;;;;;19.23;38.69;100559.44;3729153;37;21137;-79
2022/04/22 12:08:19;;;;;;;;;26.50;25.50;;;;;19.11;39.07;100553.13;3728250;38;21151;-78
2022/04/22 12:10:48;;;;;;;;;24.50;24.00;;;;;18.73;40.12;100531.66;3727603;38;21140;-82
2022/04/22 12:13:16;;;;;;;;;25.50;24.25;;;;;18.97;40.23;100546.22;3727896;38;21155;-80
2022/04/22 12:15:46;;;;;;;;;20.75;20.75;;;;;19.26;40.78;100566.34;3728810;38;21278;-80
2022/04/22 12:18:36;;;;;;;;;24.50;24.00;;;;;19.42;40.96;100541.72;3727970;37;21230;-76
2022/04/22 12:21:05;;;;;;;;;23.00;23.00;;;;;19.57;40.48;100565.13;3729573;38;21130;-79
2022/04/22 12:23:57;;;;;;;;;26.25;26.25;;;;;19.20;40.44;100482.28;3730890;37;21214;-81
2022/04/22 12:26:26;;;;;;;;;25.50;25.50;;;;;19.24;41.03;100535.56;3731086;38;21360;-81
2022/04/22 12:29:21;;;;;;;;;24.25;23.75;;;;;18.90;42.49;100504.38;3730201;37;21223;-81
2022/04/22 12:31:54;;;;;;;;;21.00;21.00;;;;;18.25;42.43;100411.28;3730296;38;21192;-80